»·PEaware :: ASA1919 KSFO-KPSP

ASA1919 :: KSFO-KPSP

FLIGHT INFORMATION

Flight Status: Arrived
Operator:
Alaska Airlines
More flights by this operator :: More flights under this callsign
Pilot: Nick B. (16803)
Aircraft: BOEING 737-800
(B738)
More flights by this aircraft type
Origin: KSFO San Francisco Intl
United States
Destination: KPSP Palm Springs Intl
United States
More flights between these airports :: More routes between these airports
Route: +SSTIK3 LOSHN CLASN SIZLR2
File this flight plan on PilotEdge
Remarks:
Altitude:
(Current/Filed)
33,000ft
Speed:
(Current/Filed)
450kts
Departed: 30-Sep-17 10:10 AM
Arrived: 30-Sep-17 11:40 AM
Distance/Time
Traveled:
365nm/1:29
Distance/Time
To Go:
Arrived

Flight Plot

Page will automatically refresh every two minutes.

Flight plan parsing failed; only flown route is shown


Map Options




Map Legend


Flown Route
Filed Route
Departure Airport
Arrival Airport
Navaid (VOR, NDB)
Fix

Horizontal Profiles

Position Reports

Time Latitude Longitude Heading Altitude Ground
Speed
30-Sep-17 09:57 37.619538 -122.384255 117 20ft 0kts
30-Sep-17 09:58 37.619538 -122.384255 117 20ft 0kts
30-Sep-17 09:59 37.619538 -122.384255 117 20ft 0kts
30-Sep-17 10:00 37.619538 -122.384255 117 20ft 0kts
30-Sep-17 10:01 37.619538 -122.384255 117 20ft 0kts
30-Sep-17 10:02 37.619538 -122.384255 117 20ft 0kts
30-Sep-17 10:03 37.619538 -122.384255 117 20ft 0kts
30-Sep-17 10:04 37.619839 -122.384985 117 20ft 2kts
30-Sep-17 10:05 37.619868 -122.385056 117 20ft 0kts
30-Sep-17 10:06 37.619868 -122.385056 117 20ft 0kts
30-Sep-17 10:07 37.619868 -122.385056 117 20ft 0kts
30-Sep-17 10:08 37.619868 -122.385056 117 20ft 0kts
30-Sep-17 10:09 37.620024 -122.384356 8 20ft 11kts
30-Sep-17 10:10 37.618649 -122.379495 145 20ft 26kts
30-Sep-17 10:11 37.612341 -122.382343 207 21ft 15kts
30-Sep-17 10:12 37.609699 -122.383001 75 20ft 4kts
30-Sep-17 10:13 37.609682 -122.382759 104 20ft 6kts
30-Sep-17 10:14 37.619885 -122.374834 28 23ft 146kts
30-Sep-17 10:15 37.648861 -122.349412 28 2610ft 142kts
30-Sep-17 10:21 37.609973 -122.381488 27 20ft 9kts
30-Sep-17 10:22 37.630805 -122.367949 26 386ft 144kts
30-Sep-17 10:23 37.666733 -122.342118 39 2277ft 165kts
30-Sep-17 10:24 37.707631 -122.328302 314 4538ft 192kts
30-Sep-17 10:25 37.692285 -122.379798 182 7040ft 199kts
30-Sep-17 10:26 37.671705 -122.330378 50 9425ft 200kts
30-Sep-17 10:27 37.715185 -122.343738 281 11779ft 203kts
30-Sep-17 10:28 37.690682 -122.405270 226 13903ft 201kts
30-Sep-17 10:29 37.640933 -122.435734 193 15873ft 203kts
30-Sep-17 10:30 37.586010 -122.450296 191 17577ft 202kts
30-Sep-17 10:31 37.530774 -122.464398 191 19025ft 204kts
30-Sep-17 10:32 37.480432 -122.444958 129 20163ft 211kts
30-Sep-17 10:33 37.433168 -122.373837 128 19191ft 336kts
30-Sep-17 10:34 37.369880 -122.276258 129 20539ft 370kts
30-Sep-17 10:35 37.303767 -122.174886 128 22543ft 377kts
30-Sep-17 10:36 37.237012 -122.072303 132 24549ft 378kts
30-Sep-17 10:37 37.170225 -121.970340 133 26315ft 382kts
30-Sep-17 10:38 37.101801 -121.866319 131 27639ft 396kts
30-Sep-17 10:39 37.029781 -121.756932 127 28647ft 416kts
30-Sep-17 10:40 36.954832 -121.643079 128 29653ft 432kts
30-Sep-17 10:41 36.879567 -121.528541 130 31506ft 420kts
30-Sep-17 10:42 36.805668 -121.416231 130 32995ft 415kts
30-Sep-17 10:43 36.729299 -121.301217 130 33094ft 447kts
30-Sep-17 10:44 36.646860 -121.177506 130 33099ft 478kts
30-Sep-17 10:45 36.559603 -121.047018 130 33096ft 503kts
30-Sep-17 10:46 36.468182 -120.910850 131 33081ft 521kts
30-Sep-17 10:47 36.375232 -120.772874 131 33066ft 518kts
30-Sep-17 10:48 36.283577 -120.637290 131 33046ft 511kts
30-Sep-17 10:49 36.191593 -120.501871 131 33042ft 514kts
30-Sep-17 10:50 36.099604 -120.366424 131 33054ft 518kts
30-Sep-17 10:51 36.021950 -120.253330 131 33052ft 516kts
30-Sep-17 10:52 35.928845 -120.117499 131 33052ft 516kts
30-Sep-17 10:53 35.820535 -119.959771 130 33042ft 521kts
30-Sep-17 10:54 35.747240 -119.841456 128 33034ft 521kts
30-Sep-17 10:55 35.658584 -119.699787 129 33034ft 519kts
30-Sep-17 10:56 35.570399 -119.559343 128 33042ft 520kts
30-Sep-17 10:57 35.481775 -119.419074 129 33038ft 517kts
30-Sep-17 10:58 35.393363 -119.280073 129 33036ft 518kts
30-Sep-17 10:59 35.304938 -119.141583 129 33036ft 515kts
30-Sep-17 11:00 35.217054 -119.002897 129 33039ft 513kts
30-Sep-17 11:01 35.129808 -118.865081 129 33048ft 513kts
30-Sep-17 11:02 35.043319 -118.728907 129 33062ft 506kts
30-Sep-17 11:03 34.958371 -118.595923 129 31294ft 476kts
30-Sep-17 11:04 34.879238 -118.472102 129 28797ft 458kts
30-Sep-17 11:05 34.799591 -118.347747 129 26295ft 472kts
30-Sep-17 11:06 34.718278 -118.221746 129 23797ft 467kts
30-Sep-17 11:07 34.639703 -118.100669 128 21805ft 449kts
30-Sep-17 11:08 34.574703 -117.970624 119 21529ft 450kts
30-Sep-17 11:09 34.512681 -117.838830 120 21517ft 450kts
30-Sep-17 11:10 34.449743 -117.707292 120 21514ft 451kts
30-Sep-17 11:11 34.393730 -117.572145 116 21504ft 450kts
30-Sep-17 11:12 34.338277 -117.436655 116 21506ft 450kts
30-Sep-17 11:13 34.281015 -117.301725 120 21498ft 449kts
30-Sep-17 11:14 34.219410 -117.170585 119 21504ft 448kts
30-Sep-17 11:15 34.157713 -117.039247 120 21506ft 449kts
30-Sep-17 11:16 34.096167 -116.908299 119 21491ft 448kts
30-Sep-17 11:17 34.038024 -116.782284 116 21470ft 448kts
30-Sep-17 11:18 33.997605 -116.640094 106 21448ft 448kts
30-Sep-17 11:19 33.940905 -116.508721 135 21449ft 446kts
30-Sep-17 11:20 33.850127 -116.407305 138 21421ft 445kts
30-Sep-17 11:21 33.742508 -116.377772 207 19555ft 389kts
30-Sep-17 11:22 33.701124 -116.476703 286 17549ft 341kts
30-Sep-17 11:23 33.758983 -116.561943 313 15550ft 324kts
30-Sep-17 11:24 33.824275 -116.632945 333 13533ft 316kts
30-Sep-17 11:25 33.890330 -116.584409 84 11538ft 330kts
30-Sep-17 11:26 33.874894 -116.478139 97 10062ft 309kts
30-Sep-17 11:27 33.836245 -116.395281 142 10024ft 292kts
30-Sep-17 11:28 33.773595 -116.331957 142 8863ft 289kts
30-Sep-17 11:29 33.713456 -116.271297 143 7367ft 276kts
30-Sep-17 11:30 33.657026 -116.214225 142 6955ft 261kts
30-Sep-17 11:31 33.600888 -116.157327 142 6954ft 264kts
30-Sep-17 11:32 33.586686 -116.083194 40 6950ft 272kts
30-Sep-17 11:33 33.652046 -116.099431 322 6977ft 259kts
30-Sep-17 11:34 33.711015 -116.149131 322 6952ft 259kts
30-Sep-17 11:35 33.770483 -116.199308 322 6383ft 272kts
30-Sep-17 11:36 33.813359 -116.269699 256 4372ft 283kts
30-Sep-17 11:37 33.778553 -116.346982 223 3991ft 240kts
30-Sep-17 11:38 33.726386 -116.331163 161 4002ft 194kts
30-Sep-17 11:39 33.691474 -116.366667 255 3991ft 173kts
30-Sep-17 11:40 33.699824 -116.413866 336 3207ft 156kts
30-Sep-17 11:41 33.739718 -116.428058 341 2270ft 155kts
30-Sep-17 11:42 33.774891 -116.452801 309 1432ft 147kts
30-Sep-17 11:43 33.805430 -116.486261 323 944ft 155kts
30-Sep-17 11:44 33.831448 -116.509313 322 485ft 23kts
30-Sep-17 11:45 33.833246 -116.511649 231 485ft 0kts
30-Sep-17 11:46 33.832796 -116.512042 194 485ft 14kts
30-Sep-17 11:47 33.828812 -116.509031 135 485ft 13kts
30-Sep-17 11:48 33.825855 -116.506983 198 485ft 9kts
30-Sep-17 11:49 33.823859 -116.506499 191 485ft 0kts
30-Sep-17 11:50 33.823859 -116.506499 191 485ft 0kts
30-Sep-17 11:51 33.823859 -116.506499 191 485ft 0kts
30-Sep-17 11:52 33.823859 -116.506499 191 485ft 0kts
30-Sep-17 11:53 33.823859 -116.506499 191 485ft 0kts
30-Sep-17 11:54 33.823859 -116.506499 191 485ft 0kts
30-Sep-17 11:55 33.823859 -116.506499 191 485ft 0kts
30-Sep-17 11:56 33.823859 -116.506499 191 485ft 0kts
30-Sep-17 11:57 33.823859 -116.506499 191 485ft 0kts
30-Sep-17 11:58 33.823859 -116.506499 191 485ft 0kts

Navigation Log

Ident Type
Flight plan parsing failed, navigation log unavailable